Archival Weather

Chicago O'Hare International

Chicago, Illinois (KORD)

Report from: Monday, June 13, 2022 6:44 PM CDT
Current time: Sunday, November 27, 2022 2:47 AM CST

Current weather
Weather history
Weather forecast

Present weatherHeavy thunderstorm with rain, fog
Temperature23.9°C (75.0°F)
Dew point22.2°C (72.0°F)
Winds 43 kts (22.1 m/s, 49.5 mph) Vrb
Wind gusts 73 kts (37.6 m/s, 84 mph)
Winds variableWinds variable from North-Northeast (30°) to North-Northwest (330°)
Peak wind 73 kts (37.6 m/s, 84 mph) North-Northeast (20°) at 18:44
Visibility0.3 mi. (0.4 km)
Clouds Few clouds with cumulonimbus 1,100 ft. (335 m)
Ceiling: Broken clouds 3,400 ft. (1,036 m)
Overcast 4,500 ft. (1,372 m)
Altimeter29.80 in.Hg (1009 mB)
Precipitiation0.05 in. (1 mm)
Precip. events Rain began 6:29 PM
Thunderstorm began 6:05 PM
Relative humidity90 %
Density altitude1,532 ft. (467 m)
Remarks Automated weather observing station with precipitation discriminator
Lightning observed
Lightning observed: intra cloud, cloud to cloud, cloud to ground
Distant continuous overhead thunderstorm northwest east moving east
Flight conditions Low Instrument Meteorological Conditions
Raw dataKORD 132344Z 36043G73KT 330V030 1/4SM R10L/1000VP6000FT +TSRA FG FEW011CB BKN034 OVC045 24/22 A2980 RMK AO2 PK WND 02073/2344 WSHFT 2326 LTG DSNT ALQDS RAB29 TSB05 CONS LTGICCCCG OHD TS NW-E MOV E P0005 T02390222
An error has occurred. This application may no longer respond until reloaded. Reload 🗙